Time;durP1;ratioP1;P1;durP2;ratioP2;P2;SDS_P1;SDS_P2;PMS_P1;PMS_P2;Temp;Humidity;BMP_temperature;BMP_pressure;BME280_temperature;BME280_humidity;BME280_pressure;Samples;Min_cycle;Max_cycle;Signal;HPM_P1;HPM_P2
2023/07/11 00:00:01;;;;;;;0.30;0.20;;;;;;;;;;5075060;28;20032;-93
2023/07/11 00:02:27;;;;;;;0.38;0.38;;;;;;;;;;5092808;28;20017;-92
2023/07/11 00:04:53;;;;;;;0.20;0.13;;;;;;;;;;5075203;28;20403;-93
2023/07/11 00:07:19;;;;;;;0.10;0.10;;;;;;;;;;5075546;28;20688;-93
2023/07/11 00:09:48;;;;;;;0.38;0.38;;;;;;;;;;5092913;28;20051;-92
2023/07/11 00:12:15;;;;;;;0.22;0.22;;;;;;;;;;5093377;28;20095;-92
2023/07/11 00:14:41;;;;;;;0.20;0.20;;;;;;;;;;5075235;28;20348;-92
2023/07/11 00:17:07;;;;;;;0.17;0.17;;;;;;;;;;5074802;28;20111;-92
2023/07/11 00:19:46;;;;;;;0.20;0.20;;;;;;;;;;5093144;28;20111;-92
2023/07/11 00:22:12;;;;;;;0.68;0.47;;;;;;;;;;5091082;28;20437;-92
2023/07/11 00:24:38;;;;;;;0.30;0.30;;;;;;;;;;5073200;28;20043;-92
2023/07/11 00:27:04;;;;;;;0.30;0.30;;;;;;;;;;5072750;28;20385;-92
2023/07/11 00:29:30;;;;;;;0.43;0.32;;;;;;;;;;5054716;28;20032;-93
2023/07/11 00:31:56;;;;;;;0.10;0.10;;;;;;;;;;5072527;28;20559;-92
2023/07/11 00:34:22;;;;;;;0.00;0.00;;;;;;;;;;5072805;28;20120;-92
2023/07/11 00:36:48;;;;;;;0.17;0.17;;;;;;;;;;5054775;28;20054;-92
2023/07/11 00:39:16;;;;;;;0.20;0.20;;;;;;;;;;5054798;28;20063;-93
2023/07/11 00:41:42;;;;;;;0.35;0.20;;;;;;;;;;5072748;28;20485;-93
2023/07/11 00:44:15;;;;;;;0.43;0.28;;;;;;;;;;5054679;28;20389;-93
2023/07/11 00:46:41;;;;;;;0.35;0.32;;;;;;;;;;5072355;28;20549;-93
2023/07/11 00:49:09;;;;;;;0.30;0.13;;;;;;;;;;5072579;28;20027;-92
2023/07/11 00:51:43;;;;;;;0.08;0.08;;;;;;;;;;5072699;28;20025;-93
2023/07/11 00:54:10;;;;;;;0.20;0.20;;;;;;;;;;5072697;28;20489;-92
2023/07/11 00:56:41;;;;;;;0.20;0.20;;;;;;;;;;5072649;28;20025;-92
2023/07/11 00:59:08;;;;;;;0.22;0.22;;;;;;;;;;5093032;28;20016;-92
2023/07/11 01:01:34;;;;;;;0.30;0.30;;;;;;;;;;5094026;28;20040;-92
2023/07/11 01:04:00;;;;;;;0.20;0.20;;;;;;;;;;5096524;28;20031;-92
2023/07/11 01:06:28;;;;;;;0.05;0.05;;;;;;;;;;5096532;28;20035;-92
2023/07/11 01:08:55;;;;;;;0.43;0.30;;;;;;;;;;5096499;28;20024;-93
2023/07/11 01:11:23;;;;;;;0.52;0.30;;;;;;;;;;5096501;28;20023;-92
2023/07/11 01:13:49;;;;;;;0.10;0.10;;;;;;;;;;5078253;28;20032;-93
2023/07/11 01:16:15;;;;;;;0.40;0.40;;;;;;;;;;5096589;28;20021;-92
2023/07/11 01:18:41;;;;;;;0.20;0.20;;;;;;;;;;5096503;28;20027;-92
2023/07/11 01:21:08;;;;;;;0.30;0.25;;;;;;;;;;5096233;28;20024;-92
2023/07/11 01:23:35;;;;;;;0.20;0.20;;;;;;;;;;5083152;28;20461;-92
2023/07/11 01:26:01;;;;;;;0.20;0.20;;;;;;;;;;5086652;28;20024;-92
2023/07/11 01:28:28;;;;;;;0.20;0.20;;;;;;;;;;5095996;28;20047;-92
2023/07/11 01:30:54;;;;;;;0.10;0.10;;;;;;;;;;5096223;28;20054;-92
2023/07/11 01:33:20;;;;;;;0.10;0.10;;;;;;;;;;5096200;28;20040;-93
2023/07/11 01:35:46;;;;;;;0.30;0.30;;;;;;;;;;5095500;28;20107;-93
2023/07/11 01:38:12;;;;;;;0.40;0.40;;;;;;;;;;5096614;28;20439;-92
2023/07/11 01:40:38;;;;;;;0.68;0.50;;;;;;;;;;5095867;28;20055;-92
2023/07/11 01:43:04;;;;;;;0.10;0.10;;;;;;;;;;5096014;28;20020;-92
2023/07/11 01:45:30;;;;;;;0.55;0.55;;;;;;;;;;5077402;28;20025;-92
2023/07/11 01:47:56;;;;;;;0.55;0.55;;;;;;;;;;5095978;28;20072;-92
2023/07/11 01:50:22;;;;;;;0.15;0.15;;;;;;;;;;5095838;28;20031;-92
2023/07/11 01:52:48;;;;;;;0.30;0.20;;;;;;;;;;5077860;28;20118;-92
2023/07/11 01:55:14;;;;;;;0.20;0.20;;;;;;;;;;5077609;28;20511;-92
2023/07/11 01:57:40;;;;;;;1.08;0.35;;;;;;;;;;5077510;28;20492;-93
2023/07/11 02:00:07;;;;;;;0.20;0.20;;;;;;;;;;5095474;28;20081;-92
2023/07/11 02:02:33;;;;;;;0.10;0.10;;;;;;;;;;5095574;28;20024;-92
2023/07/11 02:04:59;;;;;;;0.10;0.10;;;;;;;;;;5095551;28;20024;-92
2023/07/11 02:07:25;;;;;;;0.88;0.82;;;;;;;;;;5095359;28;20502;-92
2023/07/11 02:09:51;;;;;;;0.80;0.20;;;;;;;;;;5095294;28;20103;-92
2023/07/11 02:12:17;;;;;;;0.30;0.30;;;;;;;;;;5094836;28;20077;-92
2023/07/11 02:14:43;;;;;;;0.10;0.10;;;;;;;;;;5095133;28;20028;-93
2023/07/11 02:17:09;;;;;;;0.20;0.20;;;;;;;;;;5077341;28;20503;-92
2023/07/11 02:19:35;;;;;;;0.20;0.20;;;;;;;;;;5095177;28;20045;-92
2023/07/11 02:22:01;;;;;;;0.30;0.30;;;;;;;;;;5094401;28;20058;-92
2023/07/11 02:24:27;;;;;;;0.10;0.10;;;;;;;;;;5095579;28;20048;-91
2023/07/11 02:26:53;;;;;;;0.20;0.20;;;;;;;;;;5094620;28;20361;-93
2023/07/11 02:29:19;;;;;;;0.20;0.20;;;;;;;;;;5094873;28;20048;-92
2023/07/11 02:31:45;;;;;;;0.28;0.20;;;;;;;;;;5076632;28;20392;-92
2023/07/11 02:34:11;;;;;;;0.05;0.05;;;;;;;;;;5094929;28;20032;-93
2023/07/11 02:36:37;;;;;;;0.10;0.10;;;;;;;;;;5094628;28;20052;-92
2023/07/11 02:39:03;;;;;;;0.22;0.22;;;;;;;;;;5076610;28;20055;-92
2023/07/11 02:41:29;;;;;;;0.10;0.10;;;;;;;;;;5094876;28;20130;-92
2023/07/11 02:43:56;;;;;;;0.50;0.20;;;;;;;;;;5094722;28;20025;-91
2023/07/11 02:46:22;;;;;;;0.52;0.35;;;;;;;;;;5094522;28;20020;-92
2023/07/11 02:48:48;;;;;;;0.57;0.57;;;;;;;;;;5094488;28;20035;-92
2023/07/11 02:51:14;;;;;;;0.40;0.40;;;;;;;;;;5094435;28;20074;-92
2023/07/11 02:53:40;;;;;;;0.55;0.35;;;;;;;;;;5094815;28;20550;-92
2023/07/11 02:56:06;;;;;;;0.45;0.30;;;;;;;;;;5094047;28;20024;-92
2023/07/11 02:58:32;;;;;;;0.10;0.10;;;;;;;;;;5094481;28;20028;-92
2023/07/11 03:01:00;;;;;;;0.80;0.80;;;;;;;;;;5094322;28;20042;-92
2023/07/11 03:03:26;;;;;;;0.28;0.28;;;;;;;;;;5094316;28;20020;-92
2023/07/11 03:05:53;;;;;;;0.10;0.10;;;;;;;;;;5094309;28;20024;-92
2023/07/11 03:08:19;;;;;;;1.00;0.47;;;;;;;;;;5094276;28;20028;-92
2023/07/11 03:10:45;;;;;;;0.20;0.20;;;;;;;;;;5094234;28;20384;-93
2023/07/11 03:13:11;;;;;;;0.08;0.08;;;;;;;;;;5075817;28;20492;-92
2023/07/11 03:15:38;;;;;;;0.00;0.00;;;;;;;;;;5094239;28;20032;-92
2023/07/11 03:18:05;;;;;;;0.47;0.13;;;;;;;;;;5093921;28;20024;-92
2023/07/11 03:20:31;;;;;;;0.20;0.20;;;;;;;;;;5093989;28;20544;-92
2023/07/11 03:22:57;;;;;;;2.17;0.20;;;;;;;;;;5093883;28;20115;-92
2023/07/11 03:25:23;;;;;;;0.10;0.10;;;;;;;;;;5093137;28;20103;-92
2023/07/11 03:27:49;;;;;;;0.10;0.10;;;;;;;;;;5093561;28;20051;-92
2023/07/11 03:30:14;;;;;;;0.03;0.03;;;;;;;;;;5075729;28;20024;-92
2023/07/11 03:32:40;;;;;;;0.22;0.22;;;;;;;;;;5093396;28;20036;-92
2023/07/11 03:35:07;;;;;;;0.10;0.10;;;;;;;;;;5093742;28;20035;-92
2023/07/11 03:37:33;;;;;;;0.30;0.20;;;;;;;;;;5094054;28;20023;-92
2023/07/11 03:39:59;;;;;;;0.15;0.15;;;;;;;;;;5075114;28;20480;-93
2023/07/11 03:42:25;;;;;;;0.20;0.20;;;;;;;;;;5093588;28;20472;-92
2023/07/11 03:44:51;;;;;;;0.00;0.00;;;;;;;;;;5093969;28;20034;-92
2023/07/11 03:47:17;;;;;;;0.10;0.10;;;;;;;;;;5093358;28;20477;-92
2023/07/11 03:49:43;;;;;;;0.10;0.10;;;;;;;;;;5093564;28;20024;-92
2023/07/11 03:52:09;;;;;;;0.20;0.20;;;;;;;;;;5075395;28;20093;-92
2023/07/11 03:54:35;;;;;;;0.28;0.28;;;;;;;;;;5093353;28;20064;-92
2023/07/11 03:57:01;;;;;;;0.13;0.13;;;;;;;;;;5075386;28;20119;-92
2023/07/11 03:59:27;;;;;;;0.10;0.10;;;;;;;;;;5093251;28;20118;-92
2023/07/11 04:01:53;;;;;;;0.10;0.10;;;;;;;;;;5091405;28;20441;-92
2023/07/11 04:04:19;;;;;;;0.03;0.03;;;;;;;;;;5074991;28;20045;-92
2023/07/11 04:06:45;;;;;;;0.00;0.00;;;;;;;;;;5093762;28;20028;-92
2023/07/11 04:09:11;;;;;;;0.10;0.10;;;;;;;;;;5074289;28;20388;-92
2023/07/11 04:11:37;;;;;;;0.45;0.30;;;;;;;;;;5093666;28;20115;-92
2023/07/11 04:14:03;;;;;;;0.10;0.10;;;;;;;;;;5093157;28;20035;-91
2023/07/11 04:16:29;;;;;;;0.10;0.10;;;;;;;;;;5093135;28;20024;-92
2023/07/11 04:18:55;;;;;;;0.40;0.40;;;;;;;;;;5075228;28;20069;-92
2023/07/11 04:21:21;;;;;;;0.70;0.30;;;;;;;;;;5093344;28;20480;-92
2023/07/11 04:23:47;;;;;;;1.30;0.30;;;;;;;;;;5074690;28;20027;-92
2023/07/11 04:26:13;;;;;;;0.20;0.20;;;;;;;;;;5093067;28;20166;-92
2023/07/11 04:28:40;;;;;;;0.08;0.08;;;;;;;;;;5093140;28;20126;-92
2023/07/11 04:31:06;;;;;;;0.10;0.10;;;;;;;;;;5092843;28;20028;-92
2023/07/11 04:33:33;;;;;;;0.00;0.00;;;;;;;;;;5093029;28;20090;-92
2023/07/11 04:36:10;;;;;;;0.35;0.20;;;;;;;;;;5079119;28;20015;-93
2023/07/11 04:38:36;;;;;;;0.20;0.20;;;;;;;;;;5081075;28;20049;-92
2023/07/11 04:41:02;;;;;;;0.10;0.10;;;;;;;;;;5081529;28;20472;-92
2023/07/11 04:43:29;;;;;;;0.45;0.45;;;;;;;;;;5099529;28;20492;-92
2023/07/11 04:45:56;;;;;;;0.30;0.30;;;;;;;;;;5099756;28;20111;-92
2023/07/11 04:48:22;;;;;;;0.20;0.20;;;;;;;;;;5081436;28;20024;-92
2023/07/11 04:50:48;;;;;;;0.10;0.10;;;;;;;;;;5081466;28;20365;-92
2023/07/11 04:53:14;;;;;;;0.13;0.13;;;;;;;;;;5099094;28;20043;-93
2023/07/11 04:55:40;;;;;;;0.20;0.20;;;;;;;;;;5099555;28;20073;-92
2023/07/11 04:58:06;;;;;;;0.10;0.10;;;;;;;;;;5099086;28;20032;-92
2023/07/11 05:00:32;;;;;;;0.10;0.10;;;;;;;;;;5099676;28;20103;-92
2023/07/11 05:02:58;;;;;;;0.20;0.20;;;;;;;;;;5081288;28;20024;-92
2023/07/11 05:05:24;;;;;;;0.45;0.45;;;;;;;;;;5081377;28;20059;-92
2023/07/11 05:07:50;;;;;;;0.10;0.10;;;;;;;;;;5098992;28;20392;-92
2023/07/11 05:10:16;;;;;;;0.40;0.40;;;;;;;;;;5081431;28;20029;-92
2023/07/11 05:12:42;;;;;;;0.52;0.20;;;;;;;;;;5099217;28;20028;-92
2023/07/11 05:15:11;;;;;;;0.38;0.38;;;;;;;;;;5080969;28;20036;-92
2023/07/11 05:17:37;;;;;;;0.40;0.40;;;;;;;;;;5098983;28;20012;-92
2023/07/11 05:20:03;;;;;;;0.10;0.10;;;;;;;;;;5099095;28;20515;-91
2023/07/11 05:22:29;;;;;;;0.13;0.13;;;;;;;;;;5099200;28;20020;-92
2023/07/11 05:24:55;;;;;;;0.10;0.10;;;;;;;;;;5081243;28;20507;-93
2023/07/11 05:27:21;;;;;;;0.90;0.30;;;;;;;;;;5099195;28;20133;-93
2023/07/11 05:29:48;;;;;;;0.22;0.22;;;;;;;;;;5099248;28;20028;-93
2023/07/11 05:32:14;;;;;;;0.10;0.10;;;;;;;;;;5099137;28;20024;-93
2023/07/11 05:34:40;;;;;;;1.75;0.73;;;;;;;;;;5080834;28;20123;-93
2023/07/11 05:37:06;;;;;;;0.28;0.28;;;;;;;;;;5099306;28;20024;-93
2023/07/11 05:39:32;;;;;;;0.20;0.20;;;;;;;;;;5098988;28;20085;-93
2023/07/11 05:41:58;;;;;;;0.10;0.10;;;;;;;;;;5098822;28;20477;-93
2023/07/11 05:44:25;;;;;;;0.60;0.50;;;;;;;;;;5099671;28;20376;-93
2023/07/11 05:46:51;;;;;;;0.00;0.00;;;;;;;;;;5097195;28;20024;-93
2023/07/11 05:49:17;;;;;;;0.43;0.20;;;;;;;;;;5096121;28;20035;-93
2023/07/11 05:51:43;;;;;;;2.47;0.55;;;;;;;;;;5095444;28;20039;-93
2023/07/11 05:54:09;;;;;;;0.13;0.13;;;;;;;;;;5095569;28;20032;-93
2023/07/11 05:56:35;;;;;;;0.00;0.00;;;;;;;;;;5096115;28;20042;-94
2023/07/11 05:59:01;;;;;;;0.40;0.40;;;;;;;;;;5096588;28;20111;-94
2023/07/11 06:01:29;;;;;;;0.20;0.20;;;;;;;;;;5096042;28;20111;-92
2023/07/11 06:04:10;;;;;;;0.15;0.15;;;;;;;;;;5077401;28;20032;-94
2023/07/11 06:06:41;;;;;;;0.10;0.10;;;;;;;;;;5095694;28;20046;-95
2023/07/11 06:09:07;;;;;;;0.08;0.08;;;;;;;;;;5096016;28;20024;-95
2023/07/11 06:11:33;;;;;;;0.20;0.20;;;;;;;;;;5095231;28;20085;-92
2023/07/11 06:13:59;;;;;;;0.00;0.00;;;;;;;;;;5071930;28;20044;-91
2023/07/11 06:16:25;;;;;;;0.47;0.20;;;;;;;;;;5095205;28;20503;-90
2023/07/11 06:18:52;;;;;;;0.00;0.00;;;;;;;;;;5077349;28;20029;-90
2023/07/11 06:21:18;;;;;;;0.40;0.40;;;;;;;;;;5062662;28;20448;-92
2023/07/11 06:23:44;;;;;;;0.15;0.15;;;;;;;;;;5089754;28;20024;-92
2023/07/11 06:26:10;;;;;;;0.25;0.25;;;;;;;;;;5076429;28;20032;-92
2023/07/11 06:28:36;;;;;;;0.10;0.10;;;;;;;;;;5093850;28;20051;-93
2023/07/11 06:31:03;;;;;;;0.28;0.25;;;;;;;;;;5076237;28;20027;-92
2023/07/11 06:33:29;;;;;;;0.10;0.10;;;;;;;;;;5074152;28;20036;-93
2023/07/11 06:35:55;;;;;;;0.13;0.13;;;;;;;;;;5088892;28;20497;-93
2023/07/11 06:38:21;;;;;;;0.00;0.00;;;;;;;;;;5074121;28;20388;-92
2023/07/11 06:40:49;;;;;;;0.30;0.10;;;;;;;;;;5093896;28;20164;-91
2023/07/11 06:43:15;;;;;;;0.10;0.10;;;;;;;;;;5094354;28;20032;-92
2023/07/11 06:45:41;;;;;;;0.15;0.15;;;;;;;;;;5094001;28;20081;-92
2023/07/11 06:48:07;;;;;;;0.30;0.15;;;;;;;;;;5094207;28;20495;-91
2023/07/11 06:50:34;;;;;;;0.43;0.43;;;;;;;;;;5089517;28;20016;-89
2023/07/11 06:53:00;;;;;;;0.05;0.03;;;;;;;;;;5077858;28;20493;-91
2023/07/11 06:55:26;;;;;;;1.65;0.52;;;;;;;;;;5081154;28;20020;-91
2023/07/11 06:57:52;;;;;;;0.10;0.10;;;;;;;;;;5093847;28;20024;-91
2023/07/11 07:00:18;;;;;;;1.02;0.40;;;;;;;;;;5090470;28;20030;-90
2023/07/11 07:02:44;;;;;;;0.10;0.10;;;;;;;;;;5092951;28;20027;-90
2023/07/11 07:05:10;;;;;;;0.17;0.17;;;;;;;;;;5093957;28;20336;-90
2023/07/11 07:07:36;;;;;;;0.20;0.10;;;;;;;;;;5084912;28;20124;-91
2023/07/11 07:10:02;;;;;;;0.47;0.45;;;;;;;;;;5075673;28;20158;-91
2023/07/11 07:12:29;;;;;;;0.43;0.28;;;;;;;;;;5086142;28;20055;-91
2023/07/11 07:14:54;;;;;;;0.10;0.10;;;;;;;;;;5074386;28;20388;-91
2023/07/11 07:17:20;;;;;;;0.70;0.30;;;;;;;;;;5083710;28;20029;-90
2023/07/11 07:19:47;;;;;;;0.30;0.20;;;;;;;;;;5092691;28;20081;-91
2023/07/11 07:22:12;;;;;;;0.60;0.52;;;;;;;;;;5092678;28;20488;-91
2023/07/11 07:24:39;;;;;;;0.85;0.55;;;;;;;;;;5093221;28;20039;-91
2023/07/11 07:27:05;;;;;;;0.40;0.40;;;;;;;;;;5092807;28;20047;-91
2023/07/11 07:29:31;;;;;;;0.35;0.35;;;;;;;;;;5090007;28;20404;-91
2023/07/11 07:31:57;;;;;;;0.10;0.10;;;;;;;;;;5092976;28;20515;-91
2023/07/11 07:34:23;;;;;;;0.20;0.20;;;;;;;;;;5093358;28;20040;-91
2023/07/11 07:36:49;;;;;;;0.50;0.40;;;;;;;;;;5093301;28;20031;-90
2023/07/11 07:39:15;;;;;;;0.15;0.15;;;;;;;;;;5070827;28;20054;-91
2023/07/11 07:41:42;;;;;;;1.85;0.93;;;;;;;;;;5075538;28;20401;-91
2023/07/11 07:44:08;;;;;;;0.08;0.08;;;;;;;;;;5092378;28;20058;-91
2023/07/11 07:46:34;;;;;;;0.50;0.50;;;;;;;;;;5091410;28;20109;-90
2023/07/11 07:49:00;;;;;;;0.43;0.20;;;;;;;;;;5093220;28;20024;-91
2023/07/11 07:51:26;;;;;;;0.90;0.63;;;;;;;;;;5092455;28;20483;-94
2023/07/11 07:53:52;;;;;;;0.55;0.35;;;;;;;;;;5067408;28;20135;-91
2023/07/11 07:56:20;;;;;;;0.22;0.22;;;;;;;;;;5088703;28;20380;-91
2023/07/11 07:58:46;;;;;;;0.30;0.30;;;;;;;;;;5088483;28;20115;-91
2023/07/11 08:01:14;;;;;;;0.22;0.22;;;;;;;;;;5081720;28;20369;-91
2023/07/11 08:03:40;;;;;;;0.40;0.40;;;;;;;;;;5085884;28;20047;-91
2023/07/11 08:06:06;;;;;;;0.20;0.20;;;;;;;;;;5075238;28;20029;-92
2023/07/11 08:08:32;;;;;;;0.43;0.43;;;;;;;;;;5077928;28;20027;-92
2023/07/11 08:11:01;;;;;;;0.30;0.30;;;;;;;;;;5075497;28;20023;-92
2023/07/11 08:13:27;;;;;;;0.10;0.10;;;;;;;;;;5093107;28;20064;-91
2023/07/11 08:15:53;;;;;;;0.20;0.20;;;;;;;;;;5092779;28;20024;-91
2023/07/11 08:18:19;;;;;;;0.90;0.90;;;;;;;;;;5093775;28;20042;-92
2023/07/11 08:20:45;;;;;;;0.30;0.30;;;;;;;;;;5093203;28;20027;-91
2023/07/11 08:23:11;;;;;;;3.70;1.73;;;;;;;;;;5086682;28;20027;-92
2023/07/11 08:25:40;;;;;;;0.52;0.52;;;;;;;;;;5092951;28;20028;-92
2023/07/11 08:28:06;;;;;;;0.80;0.68;;;;;;;;;;5092775;28;20043;-92
2023/07/11 08:30:35;;;;;;;0.30;0.30;;;;;;;;;;5092642;28;20024;-91
2023/07/11 08:33:02;;;;;;;1.15;1.02;;;;;;;;;;5092755;28;20035;-92
2023/07/11 08:35:28;;;;;;;0.65;0.65;;;;;;;;;;5079755;28;20111;-92
2023/07/11 08:37:55;;;;;;;0.93;0.65;;;;;;;;;;5092949;28;20032;-92
2023/07/11 08:40:22;;;;;;;0.45;0.45;;;;;;;;;;5092756;28;20028;-92
2023/07/11 08:42:48;;;;;;;1.35;0.55;;;;;;;;;;5085545;28;20028;-92
2023/07/11 08:45:14;;;;;;;1.23;0.73;;;;;;;;;;5083137;28;20511;-92
2023/07/11 08:47:43;;;;;;;1.05;0.95;;;;;;;;;;5080470;28;20024;-92
2023/07/11 08:50:17;;;;;;;0.43;0.43;;;;;;;;;;5092112;28;20032;-92
2023/07/11 08:52:44;;;;;;;3.15;1.30;;;;;;;;;;5088174;28;20166;-92
2023/07/11 08:55:17;;;;;;;0.73;0.57;;;;;;;;;;5093804;28;20067;-92
2023/07/11 08:57:46;;;;;;;0.45;0.40;;;;;;;;;;5092698;28;20019;-93
2023/07/11 09:00:12;;;;;;;0.82;0.70;;;;;;;;;;5092817;28;20032;-93
2023/07/11 09:02:47;;;;;;;1.00;0.52;;;;;;;;;;5092447;28;20020;-92
2023/07/11 09:05:16;;;;;;;1.75;1.65;;;;;;;;;;5074503;28;20039;-94
2023/07/11 09:07:43;;;;;;;2.83;1.45;;;;;;;;;;5072863;28;20023;-92
2023/07/11 09:10:33;;;;;;;0.82;0.60;;;;;;;;;;5089302;28;20066;-92
2023/07/11 09:13:03;;;;;;;0.40;0.40;;;;;;;;;;5079716;28;20040;-93
2023/07/11 09:15:36;;;;;;;3.40;1.13;;;;;;;;;;5092791;28;20542;-93
2023/07/11 09:18:05;;;;;;;0.75;0.73;;;;;;;;;;5074510;28;20442;-93
2023/07/11 09:20:47;;;;;;;0.52;0.52;;;;;;;;;;5092689;28;20035;-93
2023/07/11 09:23:22;;;;;;;1.52;1.00;;;;;;;;;;5095257;28;20028;-93
2023/07/11 09:25:48;;;;;;;1.08;0.90;;;;;;;;;;5096456;28;20024;-93
2023/07/11 09:28:14;;;;;;;0.80;0.80;;;;;;;;;;5095959;28;20052;-93
2023/07/11 09:30:49;;;;;;;7.28;1.08;;;;;;;;;;5078644;28;20020;-93
2023/07/11 09:33:32;;;;;;;2.70;1.23;;;;;;;;;;5096043;28;20024;-93
2023/07/11 09:35:58;;;;;;;0.90;0.52;;;;;;;;;;5096463;28;20024;-93
2023/07/11 09:38:33;;;;;;;0.75;0.75;;;;;;;;;;5096249;28;20028;-93
2023/07/11 09:41:38;;;;;;;5.15;1.95;;;;;;;;;;5096167;28;20035;-93
2023/07/11 09:44:06;;;;;;;0.70;0.70;;;;;;;;;;4993944;28;20088;-93
2023/07/11 09:46:32;;;;;;;1.05;1.05;;;;;;;;;;4994275;28;20518;-93
2023/07/11 09:49:00;;;;;;;2.83;1.17;;;;;;;;;;4994248;28;20061;-93
2023/07/11 09:51:45;;;;;;;0.90;0.63;;;;;;;;;;4994376;28;20054;-93
2023/07/11 09:54:21;;;;;;;0.60;0.60;;;;;;;;;;4994186;28;20046;-93
2023/07/11 09:56:48;;;;;;;0.45;0.43;;;;;;;;;;4993901;28;20029;-93
2023/07/11 09:59:14;;;;;;;0.55;0.55;;;;;;;;;;4994248;28;20026;-93
2023/07/11 10:01:41;;;;;;;0.60;0.60;;;;;;;;;;4994048;28;20042;-93
2023/07/11 10:04:09;;;;;;;0.95;0.63;;;;;;;;;;4994015;28;20030;-94
2023/07/11 10:06:41;;;;;;;5.57;2.65;;;;;;;;;;4993945;28;20544;-93
2023/07/11 10:09:07;;;;;;;1.95;0.73;;;;;;;;;;4993645;28;20093;-93
2023/07/11 10:11:33;;;;;;;0.20;0.20;;;;;;;;;;4993672;28;20097;-93
2023/07/11 10:13:59;;;;;;;0.85;0.77;;;;;;;;;;5007541;28;20095;-93
2023/07/11 10:16:25;;;;;;;0.98;0.95;;;;;;;;;;5075212;28;20040;-93
2023/07/11 10:18:52;;;;;;;3.92;1.75;;;;;;;;;;5075173;28;20170;-93
2023/07/11 10:21:23;;;;;;;0.43;0.43;;;;;;;;;;5075126;28;20056;-93
2023/07/11 10:23:50;;;;;;;3.03;1.23;;;;;;;;;;5090872;28;20024;-93
2023/07/11 10:26:22;;;;;;;2.65;1.25;;;;;;;;;;5095058;28;20111;-93
2023/07/11 10:28:58;;;;;;;1.35;1.25;;;;;;;;;;5095262;28;20048;-92
2023/07/11 10:31:42;;;;;;;0.68;0.47;;;;;;;;;;5095280;28;20095;-92
2023/07/11 10:34:13;;;;;;;0.55;0.55;;;;;;;;;;5094801;28;20039;-93
2023/07/11 10:36:45;;;;;;;0.88;0.88;;;;;;;;;;5094972;28;20032;-93
2023/07/11 10:39:18;;;;;;;1.25;1.00;;;;;;;;;;5095041;28;20036;-93
2023/07/11 10:41:47;;;;;;;0.52;0.52;;;;;;;;;;5094678;28;20020;-93
2023/07/11 10:44:19;;;;;;;1.67;0.55;;;;;;;;;;5094970;28;20024;-93
2023/07/11 10:46:48;;;;;;;1.15;0.80;;;;;;;;;;5094909;28;20024;-93
2023/07/11 10:49:19;;;;;;;1.05;0.77;;;;;;;;;;5094840;28;20043;-92
2023/07/11 10:52:02;;;;;;;1.17;0.60;;;;;;;;;;5094897;28;20027;-93
2023/07/11 10:54:28;;;;;;;0.93;0.88;;;;;;;;;;5094768;28;20038;-93
2023/07/11 10:57:01;;;;;;;0.45;0.43;;;;;;;;;;5094786;28;20024;-93
2023/07/11 10:59:29;;;;;;;1.38;1.27;;;;;;;;;;5093114;28;20032;-93
2023/07/11 11:01:58;;;;;;;0.85;0.85;;;;;;;;;;5074293;28;20024;-93
2023/07/11 11:04:27;;;;;;;1.00;0.52;;;;;;;;;;5074444;28;20021;-93
2023/07/11 11:06:59;;;;;;;2.13;0.73;;;;;;;;;;5074705;28;20440;-93
2023/07/11 11:09:47;;;;;;;0.50;0.50;;;;;;;;;;5056107;28;20048;-94
2023/07/11 11:12:16;;;;;;;18.40;1.92;;;;;;;;;;5074385;28;20453;-93
2023/07/11 11:14:55;;;;;;;0.85;0.85;;;;;;;;;;5074193;28;20059;-93
2023/07/11 11:17:40;;;;;;;3.60;1.33;;;;;;;;;;5074571;28;20025;-93
2023/07/11 11:20:24;;;;;;;3.22;2.05;;;;;;;;;;5074083;28;20020;-93
2023/07/11 11:22:56;;;;;;;2.05;1.00;;;;;;;;;;5080974;28;20047;-93
2023/07/11 11:25:34;;;;;;;1.33;1.25;;;;;;;;;;5093817;28;20031;-93
2023/07/11 11:28:19;;;;;;;0.43;0.43;;;;;;;;;;5093853;28;20131;-93
2023/07/11 11:31:04;;;;;;;0.60;0.60;;;;;;;;;;5094359;28;20098;-93
2023/07/11 11:33:53;;;;;;;0.88;0.88;;;;;;;;;;5094245;28;20036;-93
2023/07/11 11:36:37;;;;;;;1.13;1.10;;;;;;;;;;4992152;28;20031;-94
2023/07/11 11:39:04;;;;;;;0.93;0.80;;;;;;;;;;4991833;28;20033;-93
2023/07/11 11:41:39;;;;;;;0.60;0.60;;;;;;;;;;4992219;28;20034;-93
2023/07/11 11:44:10;;;;;;;1.33;0.70;;;;;;;;;;4992159;28;20054;-93
2023/07/11 11:46:37;;;;;;;0.57;0.57;;;;;;;;;;4991701;28;20078;-93
2023/07/11 11:49:05;;;;;;;3.83;1.52;;;;;;;;;;4991933;28;20036;-92
2023/07/11 11:51:32;;;;;;;0.73;0.73;;;;;;;;;;4992022;28;20076;-93
2023/07/11 11:54:16;;;;;;;1.27;1.13;;;;;;;;;;4991508;28;20042;-94
2023/07/11 11:56:46;;;;;;;0.50;0.50;;;;;;;;;;4991920;28;20041;-93
2023/07/11 11:59:20;;;;;;;2.60;1.60;;;;;;;;;;4992460;28;20537;-93
2023/07/11 12:01:46;;;;;;;0.85;0.80;;;;;;;;;;4972941;28;20200;-93
2023/07/11 12:04:33;;;;;;;1.73;0.77;;;;;;;;;;4972575;28;20040;-93
2023/07/11 12:07:06;;;;;;;0.65;0.65;;;;;;;;;;4972118;28;20392;-93
2023/07/11 12:09:47;;;;;;;0.57;0.55;;;;;;;;;;4972396;28;20467;-94
2023/07/11 12:12:19;;;;;;;2.65;1.55;;;;;;;;;;4978250;28;20034;-93
2023/07/11 12:14:57;;;;;;;1.85;0.77;;;;;;;;;;5073005;28;20043;-93
2023/07/11 12:17:29;;;;;;;5.13;1.83;;;;;;;;;;5073011;28;20027;-93
2023/07/11 12:20:01;;;;;;;3.28;1.30;;;;;;;;;;5073291;28;20036;-94
2023/07/11 12:22:27;;;;;;;0.65;0.63;;;;;;;;;;5076759;28;20537;-93
2023/07/11 12:25:02;;;;;;;0.80;0.55;;;;;;;;;;5093323;28;20024;-94
2023/07/11 12:27:28;;;;;;;0.35;0.32;;;;;;;;;;5092898;28;20048;-94
2023/07/11 12:29:55;;;;;;;2.20;1.52;;;;;;;;;;5075122;28;20446;-94
2023/07/11 12:32:33;;;;;;;1.58;0.80;;;;;;;;;;5093081;28;20031;-93
2023/07/11 12:35:05;;;;;;;0.50;0.50;;;;;;;;;;5093517;28;20028;-94
2023/07/11 12:37:50;;;;;;;1.85;1.30;;;;;;;;;;5093151;28;20036;-94
2023/07/11 12:40:19;;;;;;;1.55;0.85;;;;;;;;;;5092587;28;20020;-94
2023/07/11 12:42:51;;;;;;;0.95;0.90;;;;;;;;;;5093245;28;20122;-94
2023/07/11 12:45:27;;;;;;;3.78;1.27;;;;;;;;;;5093032;28;20543;-94
2023/07/11 12:48:01;;;;;;;2.25;1.50;;;;;;;;;;5075001;28;20073;-94
2023/07/11 12:50:30;;;;;;;1.17;1.00;;;;;;;;;;5092629;28;20154;-94
2023/07/11 12:52:57;;;;;;;0.95;0.70;;;;;;;;;;5092907;28;20028;-94
2023/07/11 12:55:23;;;;;;;0.82;0.82;;;;;;;;;;5092904;28;20123;-93
2023/07/11 12:57:49;;;;;;;1.75;1.27;;;;;;;;;;5097054;28;20034;-94
2023/07/11 13:00:22;;;;;;;0.82;0.82;;;;;;;;;;5096930;28;20024;-94
2023/07/11 13:02:50;;;;;;;1.38;1.27;;;;;;;;;;5097127;28;20020;-93
2023/07/11 13:05:16;;;;;;;0.60;0.60;;;;;;;;;;5096677;28;20032;-94
2023/07/11 13:07:43;;;;;;;1.35;0.70;;;;;;;;;;5078644;28;20029;-95
2023/07/11 13:10:24;;;;;;;3.42;1.55;;;;;;;;;;5079167;28;20115;-94
2023/07/11 13:12:54;;;;;;;0.90;0.88;;;;;;;;;;5096439;28;20027;-94
2023/07/11 13:15:22;;;;;;;5.20;2.03;;;;;;;;;;5096740;28;20028;-94
2023/07/11 13:17:50;;;;;;;0.57;0.57;;;;;;;;;;5096980;28;20028;-94
2023/07/11 13:20:21;;;;;;;0.90;0.90;;;;;;;;;;5096868;28;20067;-93
2023/07/11 13:22:47;;;;;;;1.13;1.02;;;;;;;;;;5096379;28;20039;-94
2023/07/11 13:25:15;;;;;;;0.82;0.82;;;;;;;;;;5096824;28;20032;-95
2023/07/11 13:27:42;;;;;;;1.20;0.95;;;;;;;;;;5096023;28;20082;-94
2023/07/11 13:30:25;;;;;;;1.75;0.95;;;;;;;;;;5096807;28;20080;-94
2023/07/11 13:32:56;;;;;;;0.73;0.73;;;;;;;;;;5096529;28;20024;-94
2023/07/11 13:35:24;;;;;;;0.85;0.82;;;;;;;;;;5096122;28;20024;-94
2023/07/11 13:37:50;;;;;;;0.95;0.95;;;;;;;;;;5097054;28;20020;-94
2023/07/11 13:40:32;;;;;;;0.95;0.82;;;;;;;;;;5096284;28;20031;-94
2023/07/11 13:42:58;;;;;;;1.27;1.13;;;;;;;;;;5096296;28;20028;-94
2023/07/11 13:45:25;;;;;;;1.13;1.13;;;;;;;;;;5096192;28;20472;-93
2023/07/11 13:47:52;;;;;;;0.63;0.60;;;;;;;;;;5096136;28;20050;-95
2023/07/11 13:50:26;;;;;;;1.52;0.93;;;;;;;;;;5096145;28;20120;-94
2023/07/11 13:52:52;;;;;;;0.88;0.88;;;;;;;;;;5096066;28;20028;-94
2023/07/11 13:55:38;;;;;;;1.58;1.08;;;;;;;;;;5077759;28;20047;-94
2023/07/11 13:58:04;;;;;;;1.27;1.05;;;;;;;;;;5077714;28;20027;-94
2023/07/11 14:00:30;;;;;;;0.50;0.50;;;;;;;;;;5096164;28;20480;-93
2023/07/11 14:02:56;;;;;;;0.85;0.85;;;;;;;;;;5077461;28;20513;-93
2023/07/11 14:05:24;;;;;;;1.15;1.05;;;;;;;;;;5096038;28;20080;-94
2023/07/11 14:07:51;;;;;;;1.10;0.75;;;;;;;;;;5076966;28;20027;-94
2023/07/11 14:10:18;;;;;;;1.27;1.15;;;;;;;;;;5077602;28;20035;-94
2023/07/11 14:12:44;;;;;;;1.45;1.35;;;;;;;;;;5095649;28;20058;-94
2023/07/11 14:15:13;;;;;;;4.78;2.03;;;;;;;;;;5077467;28;20450;-94
2023/07/11 14:17:39;;;;;;;0.65;0.65;;;;;;;;;;5095391;28;20020;-94
2023/07/11 14:20:05;;;;;;;2.45;1.15;;;;;;;;;;5095600;28;20107;-94
2023/07/11 14:22:31;;;;;;;1.45;1.35;;;;;;;;;;5095677;28;20020;-93
2023/07/11 14:24:58;;;;;;;2.38;1.38;;;;;;;;;;5076805;28;20032;-94
2023/07/11 14:27:24;;;;;;;1.30;1.20;;;;;;;;;;5095527;28;20492;-94
2023/07/11 14:29:50;;;;;;;2.45;1.70;;;;;;;;;;5095529;28;20031;-94
2023/07/11 14:32:17;;;;;;;1.13;1.10;;;;;;;;;;5094909;28;20548;-94
2023/07/11 14:34:43;;;;;;;1.08;0.85;;;;;;;;;;5095168;28;20113;-93
2023/07/11 14:37:18;;;;;;;1.60;1.05;;;;;;;;;;5094996;28;20489;-94
2023/07/11 14:39:44;;;;;;;0.73;0.73;;;;;;;;;;5095467;28;20408;-94
2023/07/11 14:42:18;;;;;;;1.63;1.52;;;;;;;;;;5095141;28;20464;-94
2023/07/11 14:44:44;;;;;;;3.17;1.30;;;;;;;;;;5076927;28;20032;-94
2023/07/11 14:47:10;;;;;;;1.33;1.23;;;;;;;;;;5094674;28;20023;-94
2023/07/11 14:49:37;;;;;;;6.25;1.13;;;;;;;;;;5095358;28;20032;-94